Time;durP1;ratioP1;P1;durP2;ratioP2;P2;SDS_P1;SDS_P2;PMS_P1;PMS_P2;Temp;Humidity;BMP_temperature;BMP_pressure;BME280_temperature;BME280_humidity;BME280_pressure;Samples;Min_cycle;Max_cycle;Signal;HPM_P1;HPM_P2
2022/10/28 00:00:47;;;;;;;;;;;;;;;15.55;86.00;100964.13;5053308;28;820;-63
2022/10/28 00:03:13;;;;;;;;;;;;;;;15.55;86.07;100951.16;5053301;28;803;-63
2022/10/28 00:05:38;;;;;;;;;;;;;;;15.54;85.91;100962.50;5053207;28;1294;-63
2022/10/28 00:08:03;;;;;;;;;;;;;;;15.54;86.16;100966.06;5052998;28;821;-63
2022/10/28 00:10:28;;;;;;;;;;;;;;;15.53;86.10;100961.66;5053162;28;1000;-63
2022/10/28 00:12:53;;;;;;;;;;;;;;;15.52;86.13;100958.06;5053177;28;798;-63
2022/10/28 00:15:19;;;;;;;;;;;;;;;15.52;86.55;100960.81;5052905;28;1971;-63
2022/10/28 00:17:44;;;;;;;;;;;;;;;15.52;86.21;100957.25;5052811;28;821;-63
2022/10/28 00:20:09;;;;;;;;;;;;;;;15.52;86.39;100952.53;5052952;28;987;-62
2022/10/28 00:22:34;;;;;;;;;;;;;;;15.51;86.39;100953.66;5053012;28;869;-63
2022/10/28 00:25:00;;;;;;;;;;;;;;;15.52;85.96;100957.25;5052979;28;961;-63
2022/10/28 00:27:25;;;;;;;;;;;;;;;15.51;86.17;100956.44;5052638;28;1418;-63
2022/10/28 00:29:50;;;;;;;;;;;;;;;15.51;86.34;100961.94;5052998;28;801;-63
2022/10/28 00:32:15;;;;;;;;;;;;;;;15.52;85.91;100962.75;5052976;28;821;-63
2022/10/28 00:34:40;;;;;;;;;;;;;;;15.52;86.24;100954.47;5052811;28;1894;-63
2022/10/28 00:37:05;;;;;;;;;;;;;;;15.50;86.07;100960.31;5052478;28;1313;-62
2022/10/28 00:39:30;;;;;;;;;;;;;;;15.49;86.35;100953.13;5052998;28;857;-63
2022/10/28 00:41:57;;;;;;;;;;;;;;;15.49;86.41;100953.13;5053109;28;853;-63
2022/10/28 00:44:40;;;;;;;;;;;;;;;15.50;86.49;100948.44;5052809;28;1011;-62
2022/10/28 00:47:12;;;;;;;;;;;;;;;15.50;86.26;100951.19;5052443;28;1252;-63
2022/10/28 00:49:37;;;;;;;;;;;;;;;15.49;86.48;100942.09;5052827;28;932;-63
2022/10/28 00:52:08;;;;;;;;;;;;;;;15.50;86.45;100945.69;5053445;28;856;-63
2022/10/28 00:54:33;;;;;;;;;;;;;;;15.50;86.33;100951.19;5056631;28;1898;-63
2022/10/28 00:57:00;;;;;;;;;;;;;;;15.50;86.40;100953.97;5056215;28;1395;-63
2022/10/28 00:59:26;;;;;;;;;;;;;;;15.50;86.31;100954.78;5056563;28;1007;-63
2022/10/28 01:01:52;;;;;;;;;;;;;;;15.50;86.17;100960.31;5056426;28;1067;-63
2022/10/28 01:04:18;;;;;;;;;;;;;;;15.49;86.50;100950.38;5056407;28;884;-62
2022/10/28 01:06:44;;;;;;;;;;;;;;;15.48;86.42;100943.22;5056156;28;1183;-63
2022/10/28 01:09:10;;;;;;;;;;;;;;;15.47;86.12;100947.13;5056395;28;868;-63
2022/10/28 01:11:38;;;;;;;;;;;;;;;15.49;86.27;100952.31;5056407;28;922;-63
2022/10/28 01:14:15;;;;;;;;;;;;;;;15.48;86.32;100943.22;5056174;28;1989;-63
2022/10/28 01:16:44;;;;;;;;;;;;;;;15.49;86.24;100935.78;5056172;28;1590;-63
2022/10/28 01:19:28;;;;;;;;;;;;;;;15.48;85.96;100932.19;5056175;28;988;-63
2022/10/28 01:21:59;;;;;;;;;;;;;;;15.48;86.45;100934.16;5056141;28;905;-63
2022/10/28 01:24:36;;;;;;;;;;;;;;;15.48;86.03;100932.19;5056137;28;1003;-63
2022/10/28 01:27:10;;;;;;;;;;;;;;;15.46;86.22;100934.44;5056041;28;1282;-63
2022/10/28 01:29:54;;;;;;;;;;;;;;;15.49;86.10;100933.00;5055978;28;944;-63
2022/10/28 01:32:34;;;;;;;;;;;;;;;15.49;85.66;100935.78;5055915;28;980;-63
2022/10/28 01:35:15;;;;;;;;;;;;;;;15.49;85.97;100930.25;5055672;28;1945;-63
2022/10/28 01:37:52;;;;;;;;;;;;;;;15.48;86.26;100932.19;5055753;28;860;-63
2022/10/28 01:40:21;;;;;;;;;;;;;;;15.49;86.08;100933.81;5055913;28;858;-63
2022/10/28 01:43:12;;;;;;;;;;;;;;;15.47;86.00;100941.63;5055699;28;1147;-62
2022/10/28 01:45:56;;;;;;;;;;;;;;;15.47;86.35;100933.34;5034324;28;1720;-63
2022/10/28 01:48:27;;;;;;;;;;;;;;;15.48;85.93;100931.41;5035982;28;810;-63
2022/10/28 01:50:56;;;;;;;;;;;;;;;15.48;86.15;100940.47;5035668;28;976;-63
2022/10/28 01:53:26;;;;;;;;;;;;;;;15.47;86.31;100925.06;5035581;28;1894;-63
2022/10/28 01:55:53;;;;;;;;;;;;;;;15.47;86.16;100933.34;5035112;28;1355;-62
2022/10/28 01:58:20;;;;;;;;;;;;;;;15.47;86.45;100925.06;5035628;28;988;-63
2022/10/28 02:00:46;;;;;;;;;;;;;;;15.47;86.34;100924.25;5035557;28;872;-63
2022/10/28 02:03:11;;;;;;;;;;;;;;;15.47;86.24;100914.03;5035163;28;814;-62
2022/10/28 02:05:38;;;;;;;;;;;;;;;15.48;86.08;100920.38;5034867;28;1264;-63
2022/10/28 02:08:09;;;;;;;;;;;;;;;15.48;86.18;100920.38;5035113;28;914;-63
2022/10/28 02:10:36;;;;;;;;;;;;;;;15.48;86.25;100925.88;5035232;28;877;-63
2022/10/28 02:13:06;;;;;;;;;;;;;;;15.46;86.09;100904.09;5035284;28;909;-63
2022/10/28 02:15:51;;;;;;;;;;;;;;;15.46;85.98;100895.00;5035141;28;1964;-62
2022/10/28 02:18:30;;;;;;;;;;;;;;;15.47;86.02;100902.16;5023896;28;1060;-63
2022/10/28 02:21:00;;;;;;;;;;;;;;;15.48;86.17;100901.84;5035105;28;837;-62
2022/10/28 02:23:37;;;;;;;;;;;;;;;15.47;86.20;100888.38;5035023;28;928;-63
2022/10/28 02:26:05;;;;;;;;;;;;;;;15.47;86.17;100878.16;5034685;28;1165;-63
2022/10/28 02:28:30;;;;;;;;;;;;;;;15.48;86.11;100879.78;5034954;28;992;-63
2022/10/28 02:31:08;;;;;;;;;;;;;;;15.47;86.05;100871.81;5035022;28;825;-63
2022/10/28 02:33:35;;;;;;;;;;;;;;;15.46;86.31;100882.03;5034721;28;1969;-63
2022/10/28 02:36:04;;;;;;;;;;;;;;;15.49;86.23;100886.09;5034496;28;1187;-63
2022/10/28 02:38:34;;;;;;;;;;;;;;;15.48;86.08;100888.03;5034691;28;992;-63
2022/10/28 02:41:03;;;;;;;;;;;;;;;15.47;85.31;100880.09;5034864;28;996;-63
2022/10/28 02:43:29;;;;;;;;;;;;;;;15.48;85.73;100890.81;5034710;28;1067;-62
2022/10/28 02:45:56;;;;;;;;;;;;;;;15.47;85.98;100883.69;5034286;28;1209;-63
2022/10/28 02:48:27;;;;;;;;;;;;;;;15.47;85.96;100874.59;5034591;28;1023;-63
2022/10/28 02:50:56;;;;;;;;;;;;;;;15.47;86.16;100872.63;5034493;28;1003;-63
2022/10/28 02:53:25;;;;;;;;;;;;;;;15.46;85.79;100868.25;5034444;28;1969;-63
2022/10/28 02:55:53;;;;;;;;;;;;;;;15.47;86.03;100867.13;5032875;28;1238;-62
2022/10/28 02:58:18;;;;;;;;;;;;;;;15.47;86.11;100860.78;5034910;28;1072;-63
2022/10/28 03:00:44;;;;;;;;;;;;;;;15.46;86.17;100848.94;5034377;28;769;-63
2022/10/28 03:03:09;;;;;;;;;;;;;;;15.47;85.76;100838.72;5034230;28;849;-63
2022/10/28 03:05:34;;;;;;;;;;;;;;;15.47;86.15;100845.06;5034134;28;1248;-63
2022/10/28 03:08:00;;;;;;;;;;;;;;;15.47;86.00;100838.72;5033910;28;854;-63
2022/10/28 03:10:25;;;;;;;;;;;;;;;15.46;86.40;100834.31;5034098;28;984;-63
2022/10/28 03:12:50;;;;;;;;;;;;;;;15.47;85.94;100838.72;5034269;28;817;-63
2022/10/28 03:15:15;;;;;;;;;;;;;;;15.46;86.46;100837.06;5033725;28;1921;-63
2022/10/28 03:17:40;;;;;;;;;;;;;;;15.46;85.56;100857.22;5033755;28;995;-63
2022/10/28 03:20:06;;;;;;;;;;;;;;;15.48;86.19;100868.72;5034111;28;789;-63
2022/10/28 03:22:31;;;;;;;;;;;;;;;15.47;85.59;100860.78;5033885;28;893;-62
2022/10/28 03:24:56;;;;;;;;;;;;;;;15.48;85.99;100873.47;5033910;28;900;-63
2022/10/28 03:27:21;;;;;;;;;;;;;;;15.47;85.91;100861.59;5033616;28;1256;-63
2022/10/28 03:29:46;;;;;;;;;;;;;;;15.48;85.93;100856.91;5033867;28;789;-63
2022/10/28 03:32:12;;;;;;;;;;;;;;;15.47;86.07;100869.88;5033690;28;1020;-63
2022/10/28 03:34:37;;;;;;;;;;;;;;;15.47;85.71;100869.88;5033556;28;1894;-63
2022/10/28 03:37:02;;;;;;;;;;;;;;;15.47;86.07;100866.31;5033382;28;1199;-63
2022/10/28 03:39:27;;;;;;;;;;;;;;;15.47;85.91;100877.34;5033824;28;940;-62
2022/10/28 03:41:52;;;;;;;;;;;;;;;15.47;85.95;100871.81;5033641;28;1039;-63
2022/10/28 03:44:17;;;;;;;;;;;;;;;15.47;85.95;100878.16;5033519;28;991;-63
2022/10/28 03:46:42;;;;;;;;;;;;;;;15.47;85.83;100860.78;5033244;28;1184;-63
2022/10/28 03:49:08;;;;;;;;;;;;;;;15.47;85.96;100883.69;5033509;28;992;-63
2022/10/28 03:51:33;;;;;;;;;;;;;;;15.48;85.65;100892.78;5033457;28;1008;-63
2022/10/28 03:53:58;;;;;;;;;;;;;;;15.47;85.80;100875.41;5033555;28;1894;-62
2022/10/28 03:56:23;;;;;;;;;;;;;;;15.46;85.91;100868.25;5033050;28;1240;-63
2022/10/28 03:58:48;;;;;;;;;;;;;;;15.46;85.63;100865.47;5033445;28;991;-63
2022/10/28 04:01:13;;;;;;;;;;;;;;;15.46;85.70;100854.44;5033341;28;975;-63
2022/10/28 04:03:39;;;;;;;;;;;;;;;15.47;85.40;100847.81;5033267;28;920;-62
2022/10/28 04:06:04;;;;;;;;;;;;;;;15.46;86.19;100843.41;5033000;28;1260;-62
2022/10/28 04:08:29;;;;;;;;;;;;;;;15.48;85.71;100845.88;5033292;28;837;-63
2022/10/28 04:10:54;;;;;;;;;;;;;;;15.47;85.76;100841.47;5033219;28;1028;-63
2022/10/28 04:13:19;;;;;;;;;;;;;;;15.47;85.83;100830.44;5033275;28;1969;-63
2022/10/28 04:15:45;;;;;;;;;;;;;;;15.46;85.75;100826.03;5032871;28;1213;-63
2022/10/28 04:18:11;;;;;;;;;;;;;;;15.46;85.83;100820.53;5033076;28;876;-63
2022/10/28 04:20:36;;;;;;;;;;;;;;;15.46;86.04;100824.09;5033048;28;898;-63
2022/10/28 04:23:01;;;;;;;;;;;;;;;15.46;86.01;100826.88;5033093;28;850;-63
2022/10/28 04:25:26;;;;;;;;;;;;;;;15.52;85.98;100822.88;5033211;28;1289;-63
2022/10/28 04:27:52;;;;;;;;;;;;;;;15.51;86.04;100812.97;5035067;28;818;-63
2022/10/28 04:30:18;;;;;;;;;;;;;;;15.50;86.15;100819.59;5037200;28;889;-63
2022/10/28 04:32:43;;;;;;;;;;;;;;;15.50;86.09;100808.56;5037121;28;1000;-63
2022/10/28 04:35:09;;;;;;;;;;;;;;;15.50;85.68;100807.75;5037061;28;1955;-63
2022/10/28 04:37:34;;;;;;;;;;;;;;;15.48;85.40;100796.22;5036742;28;1284;-61
2022/10/28 04:40:00;;;;;;;;;;;;;;;15.48;85.65;100799.75;5054804;28;1095;-63
2022/10/28 04:42:25;;;;;;;;;;;;;;;15.49;85.76;100804.16;5056887;28;1497;-63
2022/10/28 04:44:50;;;;;;;;;;;;;;;15.50;85.89;100803.03;5056895;28;1035;-63
2022/10/28 04:47:15;;;;;;;;;;;;;;;15.58;86.14;100803.47;5056535;28;1235;-63
2022/10/28 04:49:40;;;;;;;;;;;;;;;15.66;85.76;100797.25;5056798;28;988;-63
2022/10/28 04:52:05;;;;;;;;;;;;;;;15.72;86.27;100796.03;5056710;28;1038;-63
2022/10/28 04:54:31;;;;;;;;;;;;;;;15.75;86.31;100798.97;5056613;28;1894;-63
2022/10/28 04:56:56;;;;;;;;;;;;;;;15.76;86.58;100795.09;5056394;28;1622;-63
2022/10/28 04:59:21;;;;;;;;;;;;;;;15.77;86.70;100795.91;5056714;28;948;-62
2022/10/28 05:01:46;;;;;;;;;;;;;;;15.79;86.66;100779.88;5056545;28;877;-63
2022/10/28 05:04:11;;;;;;;;;;;;;;;15.81;86.92;100788.66;5055260;28;1011;-62
2022/10/28 05:06:36;;;;;;;;;;;;;;;15.81;87.10;100778.44;5056129;28;1267;-61
2022/10/28 05:09:02;;;;;;;;;;;;;;;15.81;87.25;100785.91;5056375;28;1059;-61
2022/10/28 05:11:27;;;;;;;;;;;;;;;15.82;87.68;100795.81;5056374;28;896;-62
2022/10/28 05:13:52;;;;;;;;;;;;;;;15.81;87.78;100791.44;5056293;28;1969;-62
2022/10/28 05:16:18;;;;;;;;;;;;;;;15.80;87.73;100776.81;5056072;28;1177;-63
2022/10/28 05:18:43;;;;;;;;;;;;;;;15.80;87.66;100776.81;5056265;28;1055;-64
2022/10/28 05:21:08;;;;;;;;;;;;;;;15.80;87.70;100770.47;5056160;28;801;-64
2022/10/28 05:23:33;;;;;;;;;;;;;;;15.81;87.84;100772.09;5056059;28;991;-64
2022/10/28 05:25:58;;;;;;;;;;;;;;;15.80;87.84;100782.34;5055720;28;1220;-64
2022/10/28 05:28:24;;;;;;;;;;;;;;;15.81;88.14;100777.63;5055988;28;805;-63
2022/10/28 05:30:49;;;;;;;;;;;;;;;15.79;87.79;100790.91;5055924;28;1034;-64
2022/10/28 05:33:14;;;;;;;;;;;;;;;15.80;88.08;100778.75;5055987;28;841;-64
2022/10/28 05:35:39;;;;;;;;;;;;;;;15.79;88.16;100788.16;5055661;28;1958;-64
2022/10/28 05:38:05;;;;;;;;;;;;;;;15.79;88.20;100783.44;5055137;28;984;-64
2022/10/28 05:40:31;;;;;;;;;;;;;;;15.80;88.48;100781.50;5055074;28;1039;-64
2022/10/28 05:42:57;;;;;;;;;;;;;;;15.80;88.46;100779.56;5055917;28;844;-64
2022/10/28 05:45:22;;;;;;;;;;;;;;;15.80;88.01;100773.22;5055569;28;1279;-63
2022/10/28 05:47:47;;;;;;;;;;;;;;;15.80;88.27;100776.81;5055511;28;1013;-64
2022/10/28 05:50:13;;;;;;;;;;;;;;;15.79;88.22;100780.69;5055632;28;877;-63
2022/10/28 05:52:38;;;;;;;;;;;;;;;15.81;87.94;100785.91;5055520;28;813;-64
2022/10/28 05:55:04;;;;;;;;;;;;;;;15.81;88.00;100777.63;5055445;28;1959;-64
2022/10/28 05:57:32;;;;;;;;;;;;;;;15.80;88.21;100773.22;5055000;28;1232;-64
2022/10/28 05:59:57;;;;;;;;;;;;;;;15.81;87.94;100772.09;5055455;28;983;-64
2022/10/28 06:02:22;;;;;;;;;;;;;;;15.80;88.09;100770.47;5055450;28;865;-64
2022/10/28 06:04:47;;;;;;;;;;;;;;;15.80;87.76;100757.50;5055306;28;975;-64
2022/10/28 06:07:12;;;;;;;;;;;;;;;15.82;87.41;100765.47;5054864;28;1200;-64
2022/10/28 06:09:37;;;;;;;;;;;;;;;15.85;87.47;100773.94;5055417;28;903;-64
2022/10/28 06:12:04;;;;;;;;;;;;;;;15.86;87.39;100774.75;5055154;28;972;-63
2022/10/28 06:14:29;;;;;;;;;;;;;;;15.82;87.44;100774.53;5054963;28;1961;-64
2022/10/28 06:16:54;;;;;;;;;;;;;;;15.79;87.19;100775.16;5054830;28;1177;-63
2022/10/28 06:19:19;;;;;;;;;;;;;;;15.77;87.10;100782.94;5055141;28;1183;-64
2022/10/28 06:21:45;;;;;;;;;;;;;;;15.75;87.21;100785.19;5055053;28;956;-63
2022/10/28 06:24:10;;;;;;;;;;;;;;;15.75;87.24;100784.34;5054993;28;1034;-64
2022/10/28 06:26:35;;;;;;;;;;;;;;;15.74;87.20;100782.72;5054505;28;1201;-64
2022/10/28 06:29:00;;;;;;;;;;;;;;;15.74;87.10;100779.97;5055018;28;936;-64
2022/10/28 06:31:25;;;;;;;;;;;;;;;15.73;87.02;100781.94;5055009;28;1011;-64
2022/10/28 06:33:51;;;;;;;;;;;;;;;15.73;87.16;100781.13;5054840;28;1879;-64
2022/10/28 06:36:16;;;;;;;;;;;;;;;15.72;86.99;100779.47;5054409;28;1344;-64
2022/10/28 06:38:41;;;;;;;;;;;;;;;15.72;86.96;100780.28;5054745;28;1051;-64
2022/10/28 06:41:06;;;;;;;;;;;;;;;15.72;86.85;100783.06;5054678;28;786;-64
2022/10/28 06:43:31;;;;;;;;;;;;;;;15.72;86.92;100794.09;5054546;28;1046;-63
2022/10/28 06:46:00;;;;;;;;;;;;;;;15.73;86.98;100792.16;5054355;28;1209;-64
2022/10/28 06:48:25;;;;;;;;;;;;;;;15.72;86.86;100791.34;5054598;28;901;-64
2022/10/28 06:50:50;;;;;;;;;;;;;;;15.72;86.87;100801.56;5054025;28;1022;-64
2022/10/28 06:53:15;;;;;;;;;;;;;;;15.72;86.71;100799.63;5054451;28;1015;-64
2022/10/28 06:55:40;;;;;;;;;;;;;;;15.73;86.97;100792.16;5054124;28;1893;-64
2022/10/28 06:58:06;;;;;;;;;;;;;;;15.72;86.66;100783.06;5054063;28;813;-64
2022/10/28 07:00:32;;;;;;;;;;;;;;;15.72;86.63;100791.34;5054659;28;707;-64
2022/10/28 07:02:57;;;;;;;;;;;;;;;15.73;86.68;100797.69;5054300;28;906;-64
2022/10/28 07:05:24;;;;;;;;;;;;;;;15.73;86.78;100800.44;5054087;28;1201;-64
2022/10/28 07:07:49;;;;;;;;;;;;;;;15.73;86.45;100801.25;5054158;28;853;-64
2022/10/28 07:10:14;;;;;;;;;;;;;;;15.75;86.54;100798.16;5054084;28;956;-64
2022/10/28 07:12:39;;;;;;;;;;;;;;;15.74;86.61;100807.56;5054005;28;778;-63
2022/10/28 07:15:05;;;;;;;;;;;;;;;15.74;86.66;100815.84;5053985;28;1969;-64
2022/10/28 07:17:30;;;;;;;;;;;;;;;15.75;86.44;100817.47;5053292;28;1206;-63
2022/10/28 07:19:55;;;;;;;;;;;;;;;15.75;86.64;100812.78;5053869;28;953;-64
2022/10/28 07:22:20;;;;;;;;;;;;;;;15.75;86.62;100817.47;5053887;28;1043;-63
2022/10/28 07:24:45;;;;;;;;;;;;;;;15.75;86.46;100809.19;5053849;28;805;-64
2022/10/28 07:27:11;;;;;;;;;;;;;;;15.75;86.26;100818.31;5053338;28;1261;-64
2022/10/28 07:29:36;;;;;;;;;;;;;;;15.75;86.44;100811.97;5053725;28;968;-63
2022/10/28 07:32:01;;;;;;;;;;;;;;;15.74;86.38;100816.66;5053795;28;1058;-64
2022/10/28 07:34:26;;;;;;;;;;;;;;;15.74;86.31;100808.38;5053581;28;1894;-63
2022/10/28 07:36:52;;;;;;;;;;;;;;;15.74;86.56;100816.66;5053200;28;1189;-64
2022/10/28 07:39:17;;;;;;;;;;;;;;;15.74;86.33;100805.63;5053782;28;845;-63
2022/10/28 07:41:42;;;;;;;;;;;;;;;15.75;86.32;100818.31;5053612;28;817;-63
2022/10/28 07:44:07;;;;;;;;;;;;;;;15.75;86.44;100807.25;5053672;28;1023;-64
2022/10/28 07:46:33;;;;;;;;;;;;;;;15.75;86.50;100807.25;5053235;28;1251;-64
2022/10/28 07:48:58;;;;;;;;;;;;;;;15.76;86.32;100799.81;5053415;28;806;-64
2022/10/28 07:51:23;;;;;;;;;;;;;;;15.76;86.50;100805.31;5053359;28;1039;-64
2022/10/28 07:53:48;;;;;;;;;;;;;;;15.76;86.40;100813.59;5053513;28;1890;-63
2022/10/28 07:56:14;;;;;;;;;;;;;;;15.97;86.31;100816.75;5052801;28;1229;-64
2022/10/28 07:58:40;;;;;;;;;;;;;;;16.14;85.81;100816.94;5053287;28;857;-64
2022/10/28 08:01:06;;;;;;;;;;;;;;;16.05;86.04;100832.59;5053072;28;1012;-64
2022/10/28 08:03:32;;;;;;;;;;;;;;;15.97;85.84;100823.09;5052817;28;894;-64
2022/10/28 08:06:01;;;;;;;;;;;;;;;15.95;85.94;100832.81;5052774;28;1217;-63
2022/10/28 08:08:26;;;;;;;;;;;;;;;15.92;86.13;100825.97;5053232;28;809;-64
2022/10/28 08:10:51;;;;;;;;;;;;;;;15.90;86.34;100833.75;5053081;28;1039;-63
2022/10/28 08:13:16;;;;;;;;;;;;;;;15.89;86.38;100823.84;5053134;28;797;-63
2022/10/28 08:15:41;;;;;;;;;;;;;;;15.89;86.11;100821.06;5052947;28;1903;-64
2022/10/28 08:18:06;;;;;;;;;;;;;;;15.88;86.17;100833.22;5052913;28;1018;-64
2022/10/28 08:20:31;;;;;;;;;;;;;;;15.87;86.33;100837.94;5052941;28;948;-64
2022/10/28 08:22:57;;;;;;;;;;;;;;;15.88;86.01;100833.22;5053105;28;1038;-64
2022/10/28 08:25:22;;;;;;;;;;;;;;;15.87;86.37;100829.66;5052979;28;1207;-64
2022/10/28 08:27:47;;;;;;;;;;;;;;;15.88;86.34;100816.66;5052675;28;861;-64
2022/10/28 08:30:12;;;;;;;;;;;;;;;15.87;86.11;100810.34;5053021;28;869;-63
2022/10/28 08:32:37;;;;;;;;;;;;;;;15.88;86.26;100823.00;5053081;28;1086;-64
2022/10/28 08:35:03;;;;;;;;;;;;;;;15.91;86.00;100843.66;5052710;28;1910;-64
2022/10/28 08:37:28;;;;;;;;;;;;;;;15.93;86.41;100840.56;5052776;28;1294;-65
2022/10/28 08:39:53;;;;;;;;;;;;;;;15.92;86.08;100845.28;5052952;28;1003;-64
2022/10/28 08:42:23;;;;;;;;;;;;;;;15.93;86.42;100827.59;5052910;28;1039;-64
2022/10/28 08:44:52;;;;;;;;;;;;;;;15.95;86.44;100838.34;5052969;28;1035;-64
2022/10/28 08:47:40;;;;;;;;;;;;;;;15.95;86.84;100841.09;5051605;28;1289;-64
2022/10/28 08:50:17;;;;;;;;;;;;;;;15.95;86.81;100833.63;5049727;28;1065;-64
2022/10/28 08:52:46;;;;;;;;;;;;;;;15.94;86.64;100834.75;5052670;28;925;-64
2022/10/28 08:55:15;;;;;;;;;;;;;;;15.93;86.47;100852.44;5052763;28;1969;-64
2022/10/28 08:57:43;;;;;;;;;;;;;;;15.95;86.84;100843.84;5053089;28;936;-64
2022/10/28 09:00:16;;;;;;;;;;;;;;;15.95;86.62;100850.19;5052608;28;1066;-64
2022/10/28 09:02:51;;;;;;;;;;;;;;;15.96;86.45;100840.78;5052860;28;844;-64
2022/10/28 09:05:20;;;;;;;;;;;;;;;15.96;86.44;100838.03;5052548;28;1205;-64
2022/10/28 09:07:46;;;;;;;;;;;;;;;15.98;86.46;100843.25;5052311;28;908;-64
2022/10/28 09:10:13;;;;;;;;;;;;;;;15.98;86.05;100844.06;5052598;28;889;-64
2022/10/28 09:12:38;;;;;;;;;;;;;;;15.99;85.97;100842.91;5052605;28;1000;-64
2022/10/28 09:15:26;;;;;;;;;;;;;;;15.99;86.41;100834.63;5056146;28;1968;-64
2022/10/28 09:17:51;;;;;;;;;;;;;;;16.01;86.61;100826.06;5056034;28;1015;-63
2022/10/28 09:20:18;;;;;;;;;;;;;;;16.00;86.81;100814.19;5056281;28;910;-64
2022/10/28 09:23:04;;;;;;;;;;;;;;;16.01;85.91;100813.06;5056167;28;845;-64
2022/10/28 09:25:47;;;;;;;;;;;;;;;16.02;86.39;100811.13;5055994;28;1203;-63
2022/10/28 09:28:27;;;;;;;;;;;;;;;16.03;86.20;100816.34;5056082;28;845;-64
2022/10/28 09:31:14;;;;;;;;;;;;;;;16.04;86.36;100812.47;5056072;28;846;-64
2022/10/28 09:33:53;;;;;;;;;;;;;;;16.05;86.44;100819.63;5055942;28;1890;-64
2022/10/28 09:36:31;;;;;;;;;;;;;;;16.06;86.13;100828.72;5055552;28;1221;-64
2022/10/28 09:38:57;;;;;;;;;;;;;;;16.05;85.77;100819.63;5055756;28;1685;-63
2022/10/28 09:41:38;;;;;;;;;;;;;;;16.07;86.46;100816.56;5055812;28;877;-64
2022/10/28 09:44:12;;;;;;;;;;;;;;;16.07;85.93;100817.38;5055974;28;1034;-64
2022/10/28 09:46:38;;;;;;;;;;;;;;;16.08;86.59;100809.88;5055622;28;1212;-64
2022/10/28 09:49:05;;;;;;;;;;;;;;;16.08;86.15;100809.88;5055698;28;1055;-64
2022/10/28 09:51:43;;;;;;;;;;;;;;;16.10;86.66;100824.19;5055587;28;682;-64
2022/10/28 09:54:09;;;;;;;;;;;;;;;16.10;86.59;100838.00;5055406;28;1961;-64
2022/10/28 09:56:35;;;;;;;;;;;;;;;16.11;86.77;100818.38;5055129;28;1321;-64
2022/10/28 09:59:01;;;;;;;;;;;;;;;16.11;86.33;100820.31;5055516;28;904;-64
2022/10/28 10:01:30;;;;;;;;;;;;;;;16.11;86.28;100821.13;5055557;28;813;-64
2022/10/28 10:03:55;;;;;;;;;;;;;;;16.13;86.65;100835.47;5055419;28;882;-64
2022/10/28 10:06:24;;;;;;;;;;;;;;;16.14;86.66;100830.75;5054996;28;1213;-64
2022/10/28 10:08:49;;;;;;;;;;;;;;;16.13;86.44;100829.94;5055187;28;1046;-64
2022/10/28 10:11:27;;;;;;;;;;;;;;;16.13;86.89;100829.94;5055253;28;797;-63
2022/10/28 10:13:53;;;;;;;;;;;;;;;16.14;86.33;100823.28;5055220;28;1959;-64
2022/10/28 10:16:39;;;;;;;;;;;;;;;16.14;86.46;100820.53;5054781;28;1579;-64
2022/10/28 10:19:06;;;;;;;;;;;;;;;16.14;87.13;100831.56;5055103;28;980;-64
2022/10/28 10:21:47;;;;;;;;;;;;;;;16.15;86.63;100838.72;5055326;28;911;-64
2022/10/28 10:24:24;;;;;;;;;;;;;;;16.15;87.14;100827.69;5054941;28;1063;-63
2022/10/28 10:26:50;;;;;;;;;;;;;;;16.15;86.98;100822.16;5052894;28;1546;-64
2022/10/28 10:29:15;;;;;;;;;;;;;;;16.16;86.85;100825.75;5043811;28;1627;-64
2022/10/28 10:31:40;;;;;;;;;;;;;;;16.16;87.55;100818.25;5039993;28;1969;-64
2022/10/28 10:34:15;;;;;;;;;;;;;;;16.18;86.63;100816.00;5060173;28;1969;-64
2022/10/28 10:36:47;;;;;;;;;;;;;;;16.28;87.10;100814.97;5048279;28;2388;-64
2022/10/28 10:39:25;;;;;;;;;;;;;;;16.55;87.50;100814.88;5049341;28;2067;-63
2022/10/28 10:41:50;;;;;;;;;;;;;;;16.57;87.01;100807.09;5046414;28;2388;-64
2022/10/28 10:44:21;;;;;;;;;;;;;;;16.52;85.96;100803.63;5051148;28;2020;-63
2022/10/28 10:46:59;;;;;;;;;;;;;;;16.39;86.47;100810.84;5053630;28;1798;-64
2022/10/28 10:49:25;;;;;;;;;;;;;;;16.34;86.23;100807.34;5053274;28;2184;-64
2022/10/28 10:51:51;;;;;;;;;;;;;;;16.33;86.43;100811.28;5050674;28;2098;-64
2022/10/28 10:54:17;;;;;;;;;;;;;;;16.30;86.70;100803.59;5052466;28;1973;-63
2022/10/28 10:56:43;;;;;;;;;;;;;;;16.28;86.62;100796.44;5052441;28;1929;-64
2022/10/28 10:59:22;;;;;;;;;;;;;;;16.28;86.98;100801.16;5053320;28;1884;-63
2022/10/28 11:01:47;;;;;;;;;;;;;;;16.30;86.40;100795.31;5050186;28;1880;-64
2022/10/28 11:04:15;;;;;;;;;;;;;;;16.30;86.16;100798.91;5037350;28;1932;-64
2022/10/28 11:06:41;;;;;;;;;;;;;;;16.30;86.23;100795.31;5043404;28;1878;-64
2022/10/28 11:09:28;;;;;;;;;;;;;;;16.30;86.09;100778.75;5052782;28;1773;-62
2022/10/28 11:11:54;;;;;;;;;;;;;;;16.31;86.85;100788.66;5052240;28;1903;-64
2022/10/28 11:14:19;;;;;;;;;;;;;;;16.32;85.92;100776.50;5052549;28;2020;-64
2022/10/28 11:16:49;;;;;;;;;;;;;;;16.35;86.05;100778.59;5050570;28;1885;-64
2022/10/28 11:19:19;;;;;;;;;;;;;;;16.34;86.98;100768.69;5052874;28;1936;-63
2022/10/28 11:22:00;;;;;;;;;;;;;;;16.35;86.17;100762.03;5044274;28;1868;-63
2022/10/28 11:24:37;;;;;;;;;;;;;;;16.36;86.11;100747.09;5050385;28;1925;-63
2022/10/28 11:27:02;;;;;;;;;;;;;;;16.36;86.95;100749.84;5051824;28;2078;-63
2022/10/28 11:29:28;;;;;;;;;;;;;;;16.37;86.76;100752.31;5052992;28;2094;-64
2022/10/28 11:32:13;;;;;;;;;;;;;;;16.39;86.00;100749.25;5051700;28;1876;-62
2022/10/28 11:34:53;;;;;;;;;;;;;;;16.40;86.20;100742.59;5035577;28;1905;-64
2022/10/28 11:37:27;;;;;;;;;;;;;;;16.41;86.60;100745.03;5048621;28;1883;-64
2022/10/28 11:39:59;;;;;;;;;;;;;;;16.44;86.05;100747.16;5052357;28;1849;-64
2022/10/28 11:42:40;;;;;;;;;;;;;;;16.45;85.78;100743.28;5052436;28;1910;-63
2022/10/28 11:45:24;;;;;;;;;;;;;;;16.47;85.67;100734.69;5049253;28;1834;-64
2022/10/28 11:48:14;;;;;;;;;;;;;;;16.47;85.30;100752.06;5047396;28;2071;-64
2022/10/28 11:50:42;;;;;;;;;;;;;;;17.02;85.74;100749.03;5050251;28;1889;-63
2022/10/28 11:53:21;;;;;;;;;;;;;;;17.09;84.73;100743.06;5049069;28;2004;-63
2022/10/28 11:55:46;;;;;;;;;;;;;;;16.88;85.40;100734.47;5052964;28;1953;-63
2022/10/28 11:58:22;;;;;;;;;;;;;;;16.76;85.33;100732.28;5044489;28;2033;-63
2022/10/28 12:01:06;;;;;;;;;;;;;;;16.69;85.26;100725.56;5051483;28;1891;-63
2022/10/28 12:03:43;;;;;;;;;;;;;;;16.66;85.27;100732.56;5044196;28;1843;-62
2022/10/28 12:06:27;;;;;;;;;;;;;;;16.67;84.63;100725.91;5052769;28;1503;-63
2022/10/28 12:08:58;;;;;;;;;;;;;;;16.72;85.41;100733.25;5052977;28;821;-63
2022/10/28 12:11:23;;;;;;;;;;;;;;;16.72;85.22;100736.81;5053175;28;1059;-63
2022/10/28 12:13:57;;;;;;;;;;;;;;;16.74;84.67;100719.94;5052983;28;1905;-63
2022/10/28 12:16:28;;;;;;;;;;;;;;;16.73;84.22;100730.16;5052983;28;1342;-63
2022/10/28 12:18:56;;;;;;;;;;;;;;;16.74;84.46;100723.50;5048230;28;1975;-63
2022/10/28 12:21:42;;;;;;;;;;;;;;;16.76;84.32;100718.47;5049201;28;1531;-64
2022/10/28 12:24:13;;;;;;;;;;;;;;;16.75;84.13;100714.09;5052981;28;900;-63
2022/10/28 12:26:38;;;;;;;;;;;;;;;16.75;84.73;100719.63;5052854;28;1310;-63
2022/10/28 12:29:06;;;;;;;;;;;;;;;16.76;85.43;100714.91;5052982;28;1070;-64
2022/10/28 12:31:38;;;;;;;;;;;;;;;16.78;85.24;100718.97;5053022;28;900;-63
2022/10/28 12:34:05;;;;;;;;;;;;;;;16.80;83.92;100713.13;5052080;28;1894;-64
2022/10/28 12:36:33;;;;;;;;;;;;;;;16.79;84.31;100717.03;5044045;28;1471;-63
2022/10/28 12:39:11;;;;;;;;;;;;;;;16.79;84.53;100712.31;5053099;28;801;-64
2022/10/28 12:41:45;;;;;;;;;;;;;;;16.79;84.30;100709.53;5053042;28;793;-64
2022/10/28 12:44:13;;;;;;;;;;;;;;;16.81;85.58;100706.47;5052902;28;801;-63
2022/10/28 12:46:47;;;;;;;;;;;;;;;16.82;84.96;100708.94;5052532;28;1294;-63
2022/10/28 12:49:17;;;;;;;;;;;;;;;16.86;84.04;100709.91;5055519;28;829;-63
2022/10/28 12:51:42;;;;;;;;;;;;;;;16.87;84.89;100694.13;5055049;28;1789;-64
2022/10/28 12:54:20;;;;;;;;;;;;;;;16.85;84.61;100688.09;5056731;28;2332;-64
2022/10/28 12:57:03;;;;;;;;;;;;;;;16.87;85.28;100688.59;5056363;28;1263;-64